createdAt,value
2019-04-27T00:01:05.274Z,77.27
2019-04-27T00:03:44.821Z,77.55
2019-04-27T00:06:20.757Z,77.69
2019-04-27T00:08:51.012Z,77.70
2019-04-27T00:11:24.096Z,77.57
2019-04-27T00:13:53.590Z,77.80
2019-04-27T00:16:46.857Z,77.87
2019-04-27T00:19:31.869Z,77.78
2019-04-27T00:22:03.168Z,77.36
2019-04-27T00:24:33.553Z,77.77
2019-04-27T00:27:03.238Z,77.49
2019-04-27T00:29:33.176Z,77.71
2019-04-27T00:32:04.120Z,77.51
2019-04-27T00:34:33.838Z,77.34
2019-04-27T00:37:06.801Z,77.22
2019-04-27T00:39:36.897Z,77.14
2019-04-27T00:42:05.324Z,77.22
2019-04-27T00:44:34.123Z,77.30
2019-04-27T00:47:03.949Z,77.26
2019-04-27T00:49:32.897Z,77.29
2019-04-27T00:52:01.774Z,77.37
2019-04-27T00:54:30.195Z,77.37
2019-04-27T00:57:13.073Z,77.04
2019-04-27T00:59:59.395Z,77.39
2019-04-27T01:02:43.432Z,77.49
2019-04-27T01:05:13.615Z,77.17
2019-04-27T01:07:43.472Z,77.42
2019-04-27T01:10:13.396Z,77.55
2019-04-27T01:12:42.998Z,74.60
2019-04-27T01:15:13.579Z,77.13
2019-04-27T01:17:41.897Z,77.12
2019-04-27T01:20:10.586Z,77.21
2019-04-27T01:22:39.249Z,77.51
2019-04-27T01:25:08.844Z,77.55
2019-04-27T01:27:42.193Z,77.86
2019-04-27T01:30:12.908Z,77.84
2019-04-27T01:32:41.378Z,78.05
2019-04-27T01:35:09.930Z,77.87
2019-04-27T01:37:38.770Z,78.15
2019-04-27T01:40:09.721Z,78.31
2019-04-27T01:42:39.500Z,78.16
2019-04-27T01:45:08.524Z,78.29
2019-04-27T01:47:37.115Z,75.50
2019-04-27T01:50:08.719Z,78.12
2019-04-27T01:52:38.548Z,78.30
2019-04-27T01:55:08.623Z,78.39
2019-04-27T01:57:38.613Z,78.10
2019-04-27T02:00:19.258Z,78.08
2019-04-27T02:02:49.555Z,77.62
2019-04-27T02:05:35.606Z,77.96
2019-04-27T02:08:04.116Z,78.19
2019-04-27T02:10:32.782Z,78.69
2019-04-27T02:13:01.219Z,78.91
2019-04-27T02:15:29.919Z,78.89
2019-04-27T02:17:59.655Z,79.01
2019-04-27T02:20:30.000Z,79.31
2019-04-27T02:22:58.819Z,79.91
2019-04-27T02:25:29.337Z,80.42
2019-04-27T02:28:04.954Z,80.79
2019-04-27T02:30:46.730Z,80.61
2019-04-27T02:33:31.829Z,80.70
2019-04-27T02:36:00.589Z,80.24
2019-04-27T02:38:30.485Z,80.79
2019-04-27T02:40:59.804Z,80.74
2019-04-27T02:43:49.724Z,78.21
2019-04-27T02:46:20.014Z,79.60
2019-04-27T02:48:58.601Z,79.55
2019-04-27T02:51:29.961Z,79.50
2019-04-27T02:54:00.561Z,80.28
2019-04-27T02:56:30.547Z,80.19
2019-04-27T02:58:59.782Z,80.54
2019-04-27T03:01:30.693Z,80.38
2019-04-27T03:04:00.330Z,80.03
2019-04-27T03:06:29.979Z,79.95
2019-04-27T03:09:00.364Z,77.95
2019-04-27T03:11:30.803Z,79.40
2019-04-27T03:14:29.492Z,79.36
2019-04-27T03:16:53.797Z,78.19
2019-04-27T03:19:32.363Z,79.12
2019-04-27T03:22:02.436Z,79.43
2019-04-27T03:24:49.754Z,79.57
2019-04-27T03:27:20.334Z,79.26
2019-04-27T03:29:49.878Z,79.40
2019-04-27T03:32:22.824Z,79.11
2019-04-27T03:34:52.356Z,79.11
2019-04-27T03:37:20.300Z,79.03
2019-04-27T03:39:49.876Z,78.78
2019-04-27T03:42:20.763Z,77.44
2019-04-27T03:44:50.287Z,78.89
2019-04-27T03:47:19.754Z,79.03
2019-04-27T03:49:50.601Z,78.81
2019-04-27T03:52:20.090Z,78.50
2019-04-27T03:54:50.490Z,76.51
2019-04-27T03:57:31.819Z,78.31
2019-04-27T04:00:02.404Z,76.46
2019-04-27T04:02:31.071Z,78.59
2019-04-27T04:05:00.039Z,78.95
2019-04-27T04:07:30.137Z,79.32
2019-04-27T04:10:00.265Z,79.06
2019-04-27T04:12:46.770Z,79.66
2019-04-27T04:15:19.861Z,79.72
2019-04-27T04:17:49.524Z,79.41
2019-04-27T04:20:16.623Z,79.26
2019-04-27T04:22:44.999Z,77.16
2019-04-27T04:25:13.517Z,78.82
2019-04-27T04:27:42.780Z,78.66
2019-04-27T04:30:12.332Z,78.80
2019-04-27T04:32:41.171Z,78.74
2019-04-27T04:35:21.763Z,78.73
2019-04-27T04:37:53.012Z,78.99
2019-04-27T04:40:23.172Z,79.35
2019-04-27T04:43:10.792Z,79.37
2019-04-27T04:45:52.460Z,79.48
2019-04-27T04:48:21.612Z,79.72
2019-04-27T04:50:50.347Z,79.84
2019-04-27T04:53:20.630Z,79.55
2019-04-27T04:55:49.050Z,79.55
2019-04-27T04:58:20.665Z,79.77
2019-04-27T05:00:49.988Z,79.47
2019-04-27T05:03:21.529Z,79.77
2019-04-27T05:05:49.910Z,79.65
2019-04-27T05:08:19.066Z,79.35
2019-04-27T05:10:49.678Z,79.83
2019-04-27T05:13:19.298Z,79.92
2019-04-27T05:15:48.732Z,80.00
2019-04-27T05:18:18.965Z,80.08
2019-04-27T05:20:52.302Z,79.97
2019-04-27T05:23:20.746Z,80.17
2019-04-27T05:25:49.413Z,80.36
2019-04-27T05:28:18.767Z,80.36
2019-04-27T05:30:48.909Z,80.44
2019-04-27T05:33:18.753Z,80.33
2019-04-27T05:35:49.174Z,80.24
2019-04-27T05:38:19.308Z,80.30
2019-04-27T05:40:49.716Z,80.38
2019-04-27T05:43:19.624Z,80.58
2019-04-27T05:46:09.969Z,80.23
2019-04-27T05:48:39.008Z,80.21
2019-04-27T05:51:09.194Z,80.20
2019-04-27T05:53:39.453Z,80.37
2019-04-27T05:56:09.473Z,80.56
2019-04-27T05:58:39.245Z,80.20
2019-04-27T06:01:09.581Z,79.94
2019-04-27T06:03:39.698Z,79.90
2019-04-27T06:06:09.515Z,79.14
2019-04-27T06:08:39.260Z,77.84
2019-04-27T06:11:09.422Z,79.02
2019-04-27T06:13:39.261Z,78.48
2019-04-27T06:16:09.391Z,78.04
2019-04-27T06:18:39.201Z,78.02
2019-04-27T06:21:09.568Z,78.52
2019-04-27T06:23:39.092Z,78.40
2019-04-27T06:26:11.753Z,77.96
2019-04-27T06:28:40.434Z,77.81
2019-04-27T06:31:08.951Z,75.49
2019-04-27T06:33:38.994Z,74.77
2019-04-27T06:36:09.880Z,76.09
2019-04-27T06:38:39.359Z,72.91
2019-04-27T06:41:10.075Z,73.10
2019-04-27T06:43:37.943Z,72.93
2019-04-27T06:46:06.436Z,72.67
2019-04-27T06:48:34.891Z,72.64
2019-04-27T06:51:05.650Z,71.52
2019-04-27T06:53:33.475Z,70.43
2019-04-27T06:56:01.911Z,70.86
2019-04-27T06:58:30.356Z,70.19
2019-04-27T07:00:59.513Z,70.77
2019-04-27T07:03:28.930Z,70.16
2019-04-27T07:05:58.808Z,68.02
2019-04-27T07:08:28.664Z,68.43
2019-04-27T07:10:58.861Z,69.03
2019-04-27T07:13:29.149Z,67.73
2019-04-27T07:15:57.159Z,67.62
2019-04-27T07:18:25.539Z,66.85
2019-04-27T07:20:53.969Z,66.87
2019-04-27T07:23:22.544Z,67.92
2019-04-27T07:25:51.520Z,68.15
2019-04-27T07:28:19.960Z,66.56
2019-04-27T07:30:48.817Z,66.62
2019-04-27T07:33:18.636Z,66.68
2019-04-27T07:35:48.950Z,66.94
2019-04-27T07:38:16.763Z,67.24
2019-04-27T07:40:45.154Z,64.67
2019-04-27T07:43:18.784Z,63.65
2019-04-27T07:45:49.383Z,64.27
2019-04-27T07:48:18.887Z,62.63
2019-04-27T07:50:48.653Z,62.37
2019-04-27T07:53:17.127Z,62.62
2019-04-27T07:55:45.551Z,62.81
2019-04-27T07:58:15.322Z,63.65
2019-04-27T08:00:43.752Z,61.36
2019-04-27T08:03:12.175Z,60.86
2019-04-27T08:05:40.653Z,60.44
2019-04-27T08:08:09.228Z,60.18
2019-04-27T08:10:39.188Z,62.29
2019-04-27T08:13:09.546Z,61.71
2019-04-27T08:15:39.635Z,60.76
2019-04-27T08:18:08.985Z,59.58
2019-04-27T08:20:39.060Z,58.05
2019-04-27T08:23:09.514Z,58.50
2019-04-27T08:25:39.218Z,58.33
2019-04-27T08:28:10.461Z,58.37
2019-04-27T08:30:49.405Z,57.74
2019-04-27T08:33:19.077Z,58.88
2019-04-27T08:35:49.076Z,57.21
2019-04-27T08:38:18.994Z,57.64
2019-04-27T08:40:46.977Z,57.21
2019-04-27T08:43:15.342Z,55.86
2019-04-27T08:45:43.783Z,55.99
2019-04-27T08:48:12.265Z,54.49
2019-04-27T08:50:42.147Z,54.34
2019-04-27T08:53:10.705Z,53.50
2019-04-27T08:55:39.597Z,53.42
2019-04-27T08:58:09.854Z,52.39
2019-04-27T09:00:39.092Z,51.72
2019-04-27T09:03:09.339Z,51.16
2019-04-27T09:05:38.855Z,52.98
2019-04-27T09:08:26.678Z,53.28
2019-04-27T09:10:56.742Z,50.42
2019-04-27T09:13:26.886Z,50.21
2019-04-27T09:16:00.115Z,50.21
2019-04-27T09:18:32.718Z,46.69
2019-04-27T09:21:02.842Z,45.70
2019-04-27T09:23:30.538Z,44.34
2019-04-27T09:25:59.509Z,42.79
2019-04-27T09:28:29.469Z,42.45
2019-04-27T09:30:58.682Z,42.43
2019-04-27T09:33:27.477Z,41.71
2019-04-27T09:35:56.726Z,40.85
2019-04-27T09:38:26.451Z,39.66
2019-04-27T09:40:55.894Z,39.54
2019-04-27T09:43:26.323Z,39.46
2019-04-27T09:45:55.786Z,40.32
2019-04-27T09:48:25.963Z,37.47
2019-04-27T09:50:55.980Z,37.19
2019-04-27T09:53:24.595Z,37.72
2019-04-27T09:55:53.032Z,35.90
2019-04-27T09:58:21.463Z,34.87
2019-04-27T10:00:49.885Z,35.36
2019-04-27T10:03:18.309Z,35.57
2019-04-27T10:05:46.719Z,35.48
2019-04-27T10:08:16.860Z,34.46
2019-04-27T10:10:45.993Z,33.10
2019-04-27T10:13:14.791Z,33.66
2019-04-27T10:15:43.147Z,31.81
2019-04-27T10:18:11.566Z,33.49
2019-04-27T10:20:41.091Z,32.99
2019-04-27T10:23:09.812Z,33.42
2019-04-27T10:25:38.234Z,33.11
2019-04-27T10:28:07.595Z,34.76
2019-04-27T10:30:36.052Z,33.48
2019-04-27T10:33:05.995Z,34.31
2019-04-27T10:35:36.370Z,34.24
2019-04-27T10:38:04.160Z,34.39
2019-04-27T10:40:32.527Z,33.77
2019-04-27T10:43:00.951Z,33.79
2019-04-27T10:45:29.381Z,33.77
2019-04-27T10:47:58.812Z,34.30
2019-04-27T10:50:27.240Z,33.81
2019-04-27T10:52:58.946Z,32.67
2019-04-27T10:55:26.266Z,32.71
2019-04-27T10:57:54.901Z,33.34
2019-04-27T11:00:28.022Z,32.66
2019-04-27T11:02:58.233Z,33.37
2019-04-27T11:05:46.480Z,32.53
2019-04-27T11:08:16.694Z,33.57
2019-04-27T11:10:46.175Z,32.68
2019-04-27T11:13:16.473Z,34.22
2019-04-27T11:15:46.093Z,33.33
2019-04-27T11:18:16.547Z,32.06
2019-04-27T11:20:46.317Z,32.02
2019-04-27T11:23:16.222Z,31.25
2019-04-27T11:25:44.275Z,29.84
2019-04-27T11:28:12.794Z,30.38
2019-04-27T11:30:41.216Z,29.82
2019-04-27T11:33:09.639Z,30.00
2019-04-27T11:35:39.703Z,30.39
2019-04-27T11:38:07.394Z,30.59
2019-04-27T11:40:36.442Z,31.12
2019-04-27T11:43:05.941Z,31.44
2019-04-27T11:45:36.635Z,31.21
2019-04-27T11:48:05.682Z,31.66
2019-04-27T11:50:35.764Z,32.05
2019-04-27T11:53:03.623Z,31.64
2019-04-27T11:55:31.997Z,31.38
2019-04-27T11:58:00.414Z,32.13
2019-04-27T12:00:29.486Z,33.03
2019-04-27T12:02:57.920Z,33.22
2019-04-27T12:05:26.330Z,31.68
2019-04-27T12:07:56.084Z,31.73
2019-04-27T12:10:26.269Z,30.79
2019-04-27T12:12:56.074Z,30.56
2019-04-27T12:15:26.256Z,29.82
2019-04-27T12:17:56.099Z,30.61
2019-04-27T12:20:25.807Z,30.88
2019-04-27T12:22:54.435Z,30.03
2019-04-27T12:25:22.880Z,29.80
2019-04-27T12:28:11.029Z,28.96
2019-04-27T12:30:46.664Z,28.52
2019-04-27T12:33:15.082Z,28.43
2019-04-27T12:35:43.516Z,28.65
2019-04-27T12:38:12.267Z,29.07
2019-04-27T12:40:40.824Z,28.79
2019-04-27T12:43:09.305Z,29.52
2019-04-27T12:45:41.002Z,30.01
2019-04-27T12:48:07.973Z,30.01
2019-04-27T12:50:36.380Z,28.99
2019-04-27T12:53:06.512Z,27.55
2019-04-27T12:55:51.429Z,28.07
2019-04-27T12:58:23.921Z,27.62
2019-04-27T13:00:53.993Z,26.62
2019-04-27T13:03:21.706Z,26.34
2019-04-27T13:05:50.132Z,25.69
2019-04-27T13:08:18.555Z,26.19
2019-04-27T13:10:46.975Z,26.30
2019-04-27T13:13:16.389Z,26.61
2019-04-27T13:15:45.964Z,27.37
2019-04-27T13:18:14.423Z,27.95
2019-04-27T13:20:42.845Z,29.34
2019-04-27T13:23:11.650Z,29.16
2019-04-27T13:25:40.067Z,31.21
2019-04-27T13:28:08.498Z,34.89
2019-04-27T13:30:36.940Z,38.86
2019-04-27T13:33:05.390Z,40.78
2019-04-27T13:35:34.278Z,41.68
2019-04-27T13:38:02.716Z,41.92
2019-04-27T13:40:32.772Z,42.40
2019-04-27T13:43:07.613Z,43.17
2019-04-27T13:45:44.117Z,44.05
2019-04-27T13:48:29.197Z,44.69
2019-04-27T13:50:59.277Z,46.03
2019-04-27T13:53:27.708Z,47.00
2019-04-27T13:55:56.765Z,48.12
2019-04-27T13:58:25.379Z,48.05
2019-04-27T14:00:53.855Z,48.92
2019-04-27T14:03:22.277Z,49.44
2019-04-27T14:05:52.482Z,50.13
2019-04-27T14:08:20.859Z,50.69
2019-04-27T14:10:51.323Z,50.62
2019-04-27T14:13:19.785Z,51.40
2019-04-27T14:15:49.100Z,51.32
2019-04-27T14:18:18.977Z,51.56
2019-04-27T14:20:48.656Z,51.96
2019-04-27T14:23:18.964Z,52.09
2019-04-27T14:25:47.363Z,52.40
2019-04-27T14:28:15.774Z,52.84
2019-04-27T14:30:44.204Z,52.79
2019-04-27T14:33:12.630Z,52.76
2019-04-27T14:35:41.119Z,53.36
2019-04-27T14:38:09.537Z,53.68
2019-04-27T14:40:39.236Z,54.16
2019-04-27T14:43:28.619Z,54.24
2019-04-27T14:45:58.406Z,53.67
2019-04-27T14:48:26.908Z,53.84
2019-04-27T14:50:55.336Z,53.83
2019-04-27T14:53:23.771Z,53.91
2019-04-27T14:55:52.197Z,54.10
2019-04-27T14:58:20.641Z,54.21
2019-04-27T15:00:49.833Z,54.91
2019-04-27T15:03:18.683Z,55.30
2019-04-27T15:05:49.664Z,55.55
2019-04-27T15:08:17.376Z,56.39
2019-04-27T15:10:46.547Z,56.74
2019-04-27T15:13:15.288Z,56.31
2019-04-27T15:15:43.712Z,55.97
2019-04-27T15:18:13.529Z,55.79
2019-04-27T15:20:46.312Z,56.05
2019-04-27T15:23:14.112Z,56.52
2019-04-27T15:25:46.815Z,56.97
2019-04-27T15:28:20.355Z,56.78
2019-04-27T15:30:50.450Z,56.79
2019-04-27T15:33:36.796Z,56.67
2019-04-27T15:36:19.364Z,57.05
2019-04-27T15:38:51.222Z,57.56
2019-04-27T15:41:24.353Z,57.39
2019-04-27T15:43:51.793Z,58.12
2019-04-27T15:46:20.231Z,57.74
2019-04-27T15:48:48.856Z,58.69
2019-04-27T15:51:21.052Z,58.70
2019-04-27T15:53:50.701Z,57.44
2019-04-27T15:56:18.507Z,58.08
2019-04-27T15:58:48.349Z,57.46
2019-04-27T16:01:18.023Z,56.67
2019-04-27T16:03:48.211Z,56.29
2019-04-27T16:06:18.725Z,56.29
2019-04-27T16:08:49.191Z,56.66
2019-04-27T16:11:19.659Z,56.09
2019-04-27T16:13:48.803Z,55.77
2019-04-27T16:16:18.705Z,55.77
2019-04-27T16:18:49.010Z,56.22
2019-04-27T16:21:17.873Z,56.41
2019-04-27T16:23:48.050Z,54.55
2019-04-27T16:26:18.344Z,56.49
2019-04-27T16:28:52.813Z,56.79
2019-04-27T16:31:18.717Z,57.01
2019-04-27T16:33:48.059Z,57.44
2019-04-27T16:36:17.128Z,55.03
2019-04-27T16:38:53.291Z,57.42
2019-04-27T16:41:21.829Z,57.85
2019-04-27T16:43:50.531Z,58.07
2019-04-27T16:46:21.342Z,58.27
2019-04-27T16:48:48.622Z,58.64
2019-04-27T16:51:18.320Z,56.99
2019-04-27T16:53:47.035Z,59.28
2019-04-27T16:56:18.315Z,60.27
2019-04-27T16:58:51.007Z,60.02
2019-04-27T17:01:20.242Z,60.40
2019-04-27T17:03:48.699Z,62.00
2019-04-27T17:06:21.006Z,64.13
2019-04-27T17:08:49.588Z,64.52
2019-04-27T17:11:19.624Z,66.64
2019-04-27T17:13:52.525Z,66.78
2019-04-27T17:16:32.225Z,67.51
2019-04-27T17:19:04.742Z,69.17
2019-04-27T17:21:37.426Z,69.43
2019-04-27T17:24:04.030Z,70.33
2019-04-27T17:26:35.483Z,70.25
2019-04-27T17:29:04.312Z,70.39
2019-04-27T17:31:34.395Z,70.63
2019-04-27T17:34:02.887Z,71.48
2019-04-27T17:36:31.459Z,71.79
2019-04-27T17:38:59.947Z,72.73
2019-04-27T17:41:28.475Z,72.24
2019-04-27T17:43:58.925Z,73.19
2019-04-27T17:46:28.171Z,73.25
2019-04-27T17:48:58.544Z,73.04
2019-04-27T17:51:28.541Z,72.16
2019-04-27T17:53:58.634Z,71.34
2019-04-27T17:56:35.378Z,70.20
2019-04-27T17:58:58.631Z,67.38
2019-04-27T18:01:30.060Z,71.37
2019-04-27T18:04:00.140Z,71.46
2019-04-27T18:06:29.469Z,68.76
2019-04-27T18:09:00.788Z,71.78
2019-04-27T18:11:28.750Z,70.87
2019-04-27T18:14:00.402Z,72.00
2019-04-27T18:16:30.512Z,72.35
2019-04-27T18:19:07.955Z,72.87
2019-04-27T18:21:33.957Z,72.78
2019-04-27T18:24:04.102Z,73.32
2019-04-27T18:26:50.033Z,73.78
2019-04-27T18:29:18.343Z,73.95
2019-04-27T18:31:53.334Z,73.60
2019-04-27T18:34:18.961Z,73.09
2019-04-27T18:36:47.306Z,74.02
2019-04-27T18:39:15.714Z,73.68
2019-04-27T18:41:48.918Z,74.75
2019-04-27T18:44:14.323Z,74.19
2019-04-27T18:46:42.764Z,74.03
2019-04-27T18:49:27.246Z,73.21
2019-04-27T18:52:08.940Z,73.07
2019-04-27T18:54:41.799Z,73.36
2019-04-27T18:57:10.657Z,73.71
2019-04-27T18:59:38.171Z,73.03
2019-04-27T19:02:08.458Z,73.60
2019-04-27T19:04:36.987Z,73.81
2019-04-27T19:07:05.434Z,73.75
2019-04-27T19:09:33.856Z,73.95
2019-04-27T19:12:02.366Z,73.24
2019-04-27T19:14:30.811Z,73.48
2019-04-27T19:16:59.428Z,73.97
2019-04-27T19:19:28.151Z,73.80
2019-04-27T19:21:58.761Z,73.68
2019-04-27T19:24:28.138Z,72.90
2019-04-27T19:26:58.814Z,73.56
2019-04-27T19:29:29.316Z,73.70
2019-04-27T19:31:59.022Z,73.88
2019-04-27T19:34:28.648Z,70.17
2019-04-27T19:36:59.239Z,73.26
2019-04-27T19:39:28.617Z,73.69
2019-04-27T19:42:01.470Z,73.25
2019-04-27T19:44:29.250Z,73.92
2019-04-27T19:46:59.998Z,73.95
2019-04-27T19:49:29.437Z,73.68
2019-04-27T19:51:58.890Z,73.84
2019-04-27T19:54:28.273Z,73.87
2019-04-27T19:56:59.507Z,73.52
2019-04-27T19:59:29.761Z,74.26
2019-04-27T20:01:59.904Z,74.22
2019-04-27T20:04:32.818Z,74.29
2019-04-27T20:07:02.596Z,74.02
2019-04-27T20:09:41.365Z,74.24
2019-04-27T20:12:10.525Z,73.34
2019-04-27T20:14:57.806Z,73.52
2019-04-27T20:17:30.918Z,73.70
2019-04-27T20:19:59.876Z,74.13
2019-04-27T20:22:28.324Z,74.22
2019-04-27T20:24:56.776Z,74.10
2019-04-27T20:27:25.200Z,73.57
2019-04-27T20:29:53.735Z,73.63
2019-04-27T20:32:22.163Z,73.08
2019-04-27T20:34:51.420Z,73.84
2019-04-27T20:37:21.055Z,73.36
2019-04-27T20:39:51.462Z,74.03
2019-04-27T20:42:21.121Z,73.69
2019-04-27T20:44:51.615Z,74.39
2019-04-27T20:47:20.260Z,74.15
2019-04-27T20:49:48.697Z,74.63
2019-04-27T20:52:18.774Z,74.69
2019-04-27T20:54:47.502Z,75.17
2019-04-27T20:57:16.051Z,75.06
2019-04-27T20:59:44.472Z,74.74
2019-04-27T21:02:32.080Z,74.92
2019-04-27T21:05:05.139Z,75.50
2019-04-27T21:07:51.040Z,74.83
2019-04-27T21:10:20.451Z,74.77
2019-04-27T21:12:48.916Z,74.48
2019-04-27T21:15:17.359Z,74.52
2019-04-27T21:17:46.052Z,75.37
2019-04-27T21:20:14.950Z,75.41
2019-04-27T21:22:43.313Z,75.56
2019-04-27T21:25:12.024Z,75.83
2019-04-27T21:27:41.044Z,75.40
2019-04-27T21:30:11.384Z,75.63
2019-04-27T21:32:40.124Z,75.62
2019-04-27T21:35:10.864Z,75.18
2019-04-27T21:37:40.872Z,75.33
2019-04-27T21:40:21.360Z,75.25
2019-04-27T21:42:51.290Z,75.56
2019-04-27T21:45:21.580Z,75.69
2019-04-27T21:47:51.735Z,72.52
2019-04-27T21:50:20.596Z,75.28
2019-04-27T21:53:07.099Z,74.99
2019-04-27T21:55:37.182Z,75.22
2019-04-27T21:58:05.697Z,74.51
2019-04-27T22:00:38.601Z,74.71
2019-04-27T22:03:07.040Z,74.88
2019-04-27T22:05:35.483Z,74.86
2019-04-27T22:08:04.454Z,74.50
2019-04-27T22:10:32.905Z,74.67
2019-04-27T22:13:01.974Z,75.21
2019-04-27T22:15:31.433Z,75.16
2019-04-27T22:18:00.721Z,74.43
2019-04-27T22:20:32.439Z,74.50
2019-04-27T22:23:02.661Z,74.84
2019-04-27T22:25:35.974Z,74.14
2019-04-27T22:28:04.558Z,73.83
2019-04-27T22:30:33.072Z,73.80
2019-04-27T22:33:01.699Z,73.96
2019-04-27T22:35:31.274Z,74.00
2019-04-27T22:38:01.791Z,74.30
2019-04-27T22:40:50.830Z,74.28
2019-04-27T22:43:34.019Z,74.46
2019-04-27T22:46:04.125Z,74.63
2019-04-27T22:48:33.046Z,74.14
2019-04-27T22:51:01.699Z,74.71
2019-04-27T22:53:30.635Z,73.92
2019-04-27T22:56:16.863Z,74.23
2019-04-27T22:58:58.580Z,74.38
2019-04-27T23:01:24.787Z,74.06
2019-04-27T23:03:57.413Z,74.21
2019-04-27T23:06:25.846Z,73.81
2019-04-27T23:08:54.269Z,73.84
2019-04-27T23:11:22.811Z,74.13
2019-04-27T23:13:52.799Z,74.28
2019-04-27T23:16:22.879Z,74.53
2019-04-27T23:18:51.573Z,74.42
2019-04-27T23:21:20.896Z,74.49
2019-04-27T23:23:51.609Z,74.49
2019-04-27T23:26:21.111Z,74.78
2019-04-27T23:28:51.397Z,74.90
2019-04-27T23:31:31.907Z,74.94
2019-04-27T23:34:01.880Z,74.72
2019-04-27T23:36:31.703Z,74.57
2019-04-27T23:39:00.996Z,74.78
2019-04-27T23:41:29.796Z,74.69
2019-04-27T23:43:58.370Z,74.52
2019-04-27T23:46:26.805Z,75.04
2019-04-27T23:48:55.439Z,75.49
2019-04-27T23:51:25.520Z,75.35
2019-04-27T23:53:53.945Z,75.50
2019-04-27T23:56:22.645Z,75.13
2019-04-27T23:58:51.386Z,75.05
